Terminal Aerodrome Forecast
Issued by NWS

Current Version | Previous Version | Text Only | Print | Product List | Glossary On
Versions: 1 2 3 4 5 6 7 8 9 10 11 12 13 14 15 16 17 18 19 20 21 22 23 24 25
000
FTUS41 KBUF 040333 AAA
TAFJHW
TAF AMD
KJHW 040333Z 0404/0424 29006KT P6SM VCSH BKN025
     FM040500 32006KT P6SM OVC020
     FM042200 VRB03KT P6SM OVC025
      AMD LTD TO CLD VIS AND WIND=

USA.gov is the U.S. government's official web portal to all federal, state and local government web resources and services.